Latest Coastal Weather Observations for Lucinda

IDQ60701

Issued at 5:21 pm EST Tuesday 21 February 2017 (issued every 10 minutes, with the page automatically refreshed every 10 minutes)

About coastal observations | Map of coastal stations | Coastal observations for QLD | Marine services | Other Formats
Station Details ID: 032141 Name: LUCINDA POINT Lat: -18.52 Lon: 146.39 Height: 10.0 m
Data from the previous 72 hours. | See also: Recent months at Lucinda
Date/Time
EST
Temp
°C
Wind Pressure Rain since
9am
mm
Weather Cloud Vis
km
Sea
Height
m
Swell
Dir  Spd
kts
Gust
kts
hPa Trend Height
m
Period
s
Dir
21/05:00pm 28.8 NE 9 11 1010.1 - 0.2 - - - - - - -
21/04:30pm 29.1 ENE 8 11 1010.1 - 0.2 - - - - - - -
21/04:00pm 28.9 ENE 8 10 1010.1 - 0.2 - - - - - - -
21/03:30pm 28.6 ENE 9 12 1010.1 - 0.2 - - - - - - -
21/03:00pm 28.8 NNE 8 12 1010.2 - 0.2 - - - - - - -
21/02:30pm 29.2 NNE 8 9 1010.3 - 0.2 - - - - - - -
21/02:00pm 28.5 NNE 10 13 1010.8 - 0.2 - - - - - - -
21/01:30pm 28.1 NE 9 11 1011.2 - 0.0 - - - - - - -
21/01:00pm 27.3 NNE 8 10 1011.7 - 0.0 - - - - - - -
21/12:30pm 27.9 ENE 10 12 1012.0 - 0.0 - - - - - - -
21/12:00pm 28.5 ESE 9 11 1012.1 - 0.0 - - - - - - -
21/11:30am 28.4 SSE 5 9 1012.3 - 0.0 - - - - - - -
21/11:00am 27.7 S 10 14 1012.7 - 0.0 - - - - - - -
21/10:30am 28.0 S 9 12 1012.8 - 0.0 - - - - - - -
21/10:00am 28.6 S 4 6 1012.8 - 0.0 - - - - - - -
21/09:30am 29.0 S 4 6 1012.8 - 0.0 - - - - - - -
21/09:00am 27.5 SSW 6 8 1012.7 - 18.2 - - - - - - -
21/08:30am 27.2 SW 7 8 1012.2 - 18.2 - - - - - - -
21/08:00am 26.7 SW 7 7 1011.9 - 18.2 - - - - - - -
21/07:30am 26.4 SW 8 10 1011.4 - 18.2 - - - - - - -
21/07:00am 26.4 SW 8 9 1011.1 - 18.2 - - - - - - -
21/06:30am 26.3 SW 5 7 1010.6 - 18.2 - - - - - - -
21/06:00am 26.3 SW 8 9 1010.4 - 18.2 - - - - - - -
21/05:30am 26.2 SW 8 9 1010.1 - 18.2 - - - - - - -
21/05:00am 26.2 SW 8 11 1010.0 - 18.2 - - - - - - -
21/04:30am 26.3 SW 7 9 1009.8 - 18.2 - - - - - - -
21/04:00am 26.1 WSW 9 10 1009.6 - 18.2 - - - - - - -
21/03:30am 26.3 SW 7 9 1009.3 - 18.2 - - - - - - -
21/03:00am 26.6 SW 7 9 1009.4 - 18.2 - - - - - - -
21/02:30am 26.2 SW 9 10 1009.5 - 18.2 - - - - - - -
21/02:00am 26.0 SW 8 9 1009.6 - 18.2 - - - - - - -
21/01:30am 26.8 SW 7 9 1010.0 - 18.2 - - - - - - -
21/01:00am 27.2 SSW 6 7 1010.1 - 18.2 - - - - - - -
21/12:30am 26.9 SSW 8 9 1010.4 - 18.2 - - - - - - -
21/12:00am 26.4 SW 9 11 1010.7 - 18.2 - - - - - - -
 
Date/Time
EST
Temp
°C
Wind Pressure Rain since
9am
mm
Weather Cloud Vis
km
Sea
Height
m
Swell
Dir  Spd
kts
Gust
kts
hPa Trend Height
m
Period
s
Dir
20/11:30pm 26.6 SW 9 11 1010.9 - 18.2 - - - - - - -
20/11:00pm 26.5 WSW 7 8 1010.9 - 18.2 - - - - - - -
20/10:30pm 26.3 SW 7 7 1011.1 - 18.2 - - - - - - -
20/10:00pm 26.4 SW 8 9 1011.3 - 18.2 - - - - - - -
20/09:30pm 26.3 SW 9 11 1010.9 - 18.2 - - - - - - -
20/09:00pm 27.1 SW 8 9 1010.5 - 18.2 - - - - - - -
20/08:30pm 26.8 SSW 9 10 1010.3 - 18.2 - - - - - - -
20/08:00pm 27.6 SSW 7 9 1009.9 - 18.2 - - - - - - -
20/07:30pm 27.7 SSW 5 6 1009.4 - 18.2 - - - - - - -
20/07:00pm 27.9 WSW 6 7 1009.0 - 18.2 - - - - - - -
20/06:30pm 28.2 WNW 8 10 1008.7 - 18.2 - - - - - - -
20/06:00pm 28.7 N 8 10 1008.6 - 18.2 - - - - - - -
20/05:30pm 28.4 NNE 7 8 1008.2 - 18.2 - - - - - - -
20/05:00pm 28.8 NNW 6 8 1008.2 - 18.2 - - - - - - -
20/04:30pm 28.8 NNW 8 11 1008.0 - 18.2 - - - - - - -
20/04:00pm 28.2 N 9 11 1007.7 - 18.2 - - - - - - -
20/03:30pm 27.3 NE 13 14 1007.5 - 18.2 - - - - - - -
20/03:00pm 27.4 NE 10 13 1007.9 - 18.2 Recent precip. - - - - - -
20/02:30pm 26.5 E 8 12 1008.4 - 18.0 - - - - - - -
20/02:00pm 25.4 ESE 15 19 1008.7 - 18.0 - - - - - - -
20/01:30pm 25.6 ENE 17 24 1008.9 - 5.4 - - - - - - -
20/01:24pm 26.6 ENE 15 21 1008.6 - 0.6 - - - - - - -
20/01:00pm 30.2 N 6 9 1008.8 - 0.0 - - - - - - -
20/12:30pm 30.1 NNE 5 7 1008.9 - 0.0 - - - - - - -
20/12:00pm 30.9 N 7 9 1009.1 - 0.0 - - - - - - -
20/11:30am 29.4 NNE 6 7 1009.4 - 0.0 - - - - - - -
20/11:00am 29.1 NE 5 7 1009.7 - 0.0 - - - - - - -
20/10:30am 29.8 E 4 5 1009.6 - 0.0 - - - - - - -
20/10:00am 30.2 S 3 5 1009.7 - 0.0 - - - - - - -
20/09:30am 28.6 SW 3 4 1009.8 - 0.0 - - - - - - -
20/09:00am 29.6 W 6 7 1009.9 - 0.0 - - - - - - -
20/08:30am 30.9 NW 3 4 1009.5 - 0.0 - - - - - - -
20/08:00am 29.7 NNW 4 5 1009.2 - 0.0 - - - - - - -
20/07:30am 28.2 CALM 0 0 1008.9 - 0.0 - - - - - - -
20/07:00am 26.8 W 4 5 1008.9 - 0.0 - - - - - - -
20/06:30am 26.2 SW 7 8 1008.5 - 0.0 - - - - - - -
20/06:00am 26.7 WSW 5 7 1008.1 - 0.0 - - - - - - -
20/05:30am 27.2 SW 4 5 1007.4 - 0.0 - - - - - - -
20/05:00am 27.3 SW 5 7 1007.2 - 0.0 - - - - - - -
20/04:30am 27.2 SSW 5 6 1006.8 - 0.0 - - - - - - -
20/04:00am 27.1 SSW 7 8 1006.7 - 0.0 - - - - - - -
20/03:30am 27.8 SSW 7 8 1006.9 - 0.0 - - - - - - -
20/03:00am 27.3 SSW 5 9 1006.8 - 0.0 - - - - - - -
20/02:30am 27.2 WSW 11 13 1007.3 - 0.0 - - - - - - -
20/02:00am 28.2 WSW 13 14 1007.6 - 0.0 - - - - - - -
20/01:30am 27.3 SW 11 13 1008.1 - 0.0 - - - - - - -
20/01:00am 26.9 SW 12 14 1008.3 - 0.0 - - - - - - -
20/12:30am 27.1 SW 14 18 1008.5 - 0.0 - - - - - - -
20/12:00am 27.1 SW 9 10 1008.8 - 0.0 - - - - - - -
 
Date/Time
EST
Temp
°C
Wind Pressure Rain since
9am
mm
Weather Cloud Vis
km
Sea
Height
m
Swell
Dir  Spd
kts
Gust
kts
hPa Trend Height
m
Period
s
Dir
19/11:30pm 27.1 SW 9 10 1009.3 - 0.0 - - - - - - -
19/11:00pm 27.2 W 10 12 1009.4 - 0.0 - - - - - - -
19/10:30pm 27.2 WSW 13 14 1009.4 - 0.0 - - - - - - -
19/10:00pm 27.2 SW 11 13 1009.1 - 0.0 - - - - - - -
19/09:30pm 28.1 SW 10 13 1009.0 - 0.0 - - - - - - -
19/09:00pm 29.4 NNW 10 13 1008.7 - 0.0 - - - - - - -
19/08:30pm 29.4 NNW 14 16 1008.0 - 0.0 - - - - - - -
19/08:00pm 29.5 NNW 13 16 1007.5 - 0.0 - - - - - - -
19/07:30pm 29.6 NNW 14 17 1007.4 - 0.0 - - - - - - -
19/07:00pm 29.5 NNW 13 16 1007.2 - 0.0 - - - - - - -
19/06:30pm 29.7 NNW 13 17 1006.7 - 0.0 - - - - - - -
19/06:00pm 29.8 N 14 17 1006.4 - 0.0 - - - - - - -
19/05:30pm 29.9 N 13 15 1006.1 - 0.0 - - - - - - -
19/05:00pm 29.9 N 14 17 1005.6 - 0.0 - - - - - - -
19/04:30pm 29.7 N 13 18 1005.6 - 0.0 - - - - - - -
19/04:00pm 30.0 NNE 12 14 1006.0 - 0.0 - - - - - - -
19/03:30pm 30.1 NNE 11 13 1005.9 - 0.0 - - - - - - -
19/03:00pm 30.0 NNE 12 14 1006.0 - 0.0 - - - - - - -
19/02:30pm 30.3 N 13 15 1006.1 - 0.0 - - - - - - -
19/02:00pm 30.1 N 13 15 1006.5 - 0.0 - - - - - - -
19/01:30pm 30.1 N 12 15 1007.0 - 0.0 - - - - - - -
19/01:00pm 30.1 N 11 14 1007.6 - 0.0 - - - - - - -
19/12:30pm 30.1 N 9 11 1008.2 - 0.0 - - - - - - -
19/12:00pm 30.5 N 9 11 1008.6 - 0.0 - - - - - - -
19/11:30am 30.5 N 7 10 1008.9 - 0.0 - - - - - - -
19/11:00am 29.6 N 7 9 1009.1 - 0.0 - - - - - - -
19/10:30am 29.8 N 6 8 1009.4 - 0.0 - - - - - - -
19/10:00am 29.6 NNE 3 4 1009.9 - 0.0 - - - - - - -
19/09:30am 29.1 NNE 3 4 1009.9 - 0.0 - - - - - - -
19/09:00am 29.4 CALM 0 0 1010.2 - 0.0 - - - - - - -
19/08:30am 27.5 SW 4 6 1010.1 - 0.0 - - - - - - -
19/08:00am 27.0 WSW 5 6 1009.8 - 0.0 - - - - - - -
19/07:30am 26.4 SW 7 8 1009.5 - 0.0 - - - - - - -
19/07:00am 25.7 SW 10 11 1009.1 - 0.0 - - - - - - -
19/06:30am 25.8 SW 8 10 1008.6 - 0.0 - - - - - - -
19/06:00am 26.4 WSW 4 5 1007.9 - 0.0 - - - - - - -
19/05:30am 26.4 WSW 4 5 1007.5 - 0.0 - - - - - - -
19/05:00am 26.2 WSW 7 8 1007.3 - 0.0 - - - - - - -
19/04:30am 26.5 WSW 6 8 1006.9 - 0.0 - - - - - - -
19/04:00am 26.5 SW 6 7 1006.8 - 0.0 - - - - - - -
19/03:30am 26.4 WSW 5 6 1006.7 - 0.0 - - - - - - -
19/03:00am 26.5 W 4 5 1006.9 - 0.0 - - - - - - -
19/02:30am 26.7 WSW 5 6 1007.4 - 0.0 - - - - - - -
19/02:00am 26.7 W 6 7 1008.0 - 0.0 - - - - - - -
19/01:30am 26.8 WSW 6 7 1008.4 - 0.0 - - - - - - -
19/01:00am 26.8 WSW 7 8 1008.7 - 0.0 - - - - - - -
19/12:30am 27.1 WSW 6 7 1009.2 - 0.0 - - - - - - -
19/12:00am 27.7 SW 5 6 1009.4 - 0.0 - - - - - - -
 
Date/Time
EST
Temp
°C
Wind Pressure Rain since
9am
mm
Weather Cloud Vis
km
Sea
Height
m
Swell
Dir  Spd
kts
Gust
kts
hPa Trend Height
m
Period
s
Dir
18/11:30pm 28.0 WNW 5 7 1009.7 - 0.0 - - - - - - -
18/11:00pm 28.0 NW 6 8 1009.7 - 0.0 - - - - - - -
18/10:30pm 28.4 NNW 12 15 1009.7 - 0.0 - - - - - - -
18/10:00pm 28.4 NNW 12 14 1009.8 - 0.0 - - - - - - -
18/09:30pm 28.4 NNW 12 15 1009.6 - 0.0 - - - - - - -
18/09:00pm 28.5 NNW 12 15 1009.6 - 0.0 - - - - - - -
18/08:30pm 28.6 NNW 11 14 1009.6 - 0.0 - - - - - - -
18/08:00pm 28.7 N 11 15 1009.4 - 0.0 - - - - - - -
18/07:30pm 28.7 N 13 15 1009.1 - 0.0 - - - - - - -
18/07:00pm 28.7 N 13 15 1009.0 - 0.0 - - - - - - -
18/06:30pm 29.0 N 11 14 1008.7 - 0.0 - - - - - - -
18/06:00pm 29.0 NNE 11 13 1008.3 - 0.0 - - - - - - -
18/05:30pm 29.0 NNE 10 13 1007.8 - 0.0 - - - - - - -

Other Formats:

Comma delimited format used in spreadsheet applications
http://www.bom.gov.au/fwo/IDQ60701/IDQ60701.94295.axf

JavaScript Object Notation format (JSON) in row-major order
http://www.bom.gov.au/fwo/IDQ60701/IDQ60701.94295.json